Time;durP1;ratioP1;P1;durP2;ratioP2;P2;SDS_P1;SDS_P2;PMS_P1;PMS_P2;Temp;Humidity;BMP_temperature;BMP_pressure;BME280_temperature;BME280_humidity;BME280_pressure;Samples;Min_cycle;Max_cycle;Signal;HPM_P1;HPM_P2
2022/04/15 00:01:24;;;;;;;;;;;13.50;99.90;;;;;;4893512;29;19924;-74
2022/04/15 00:03:56;;;;;;;;;;;13.50;99.90;;;;;;4889244;29;19924;-74
2022/04/15 00:06:28;;;;;;;;;;;13.50;99.90;;;;;;4896901;29;20357;-74
2022/04/15 00:09:00;;;;;;;;;;;13.50;99.90;;;;;;4887397;29;19955;-74
2022/04/15 00:11:32;;;;;;;;;;;13.50;99.90;;;;;;4890920;29;19924;-74
2022/04/15 00:14:04;;;;;;;;;;;13.40;99.90;;;;;;4892201;29;19931;-74
2022/04/15 00:16:35;;;;;;;;;;;13.40;99.90;;;;;;4896725;29;19923;-73
2022/04/15 00:19:09;;;;;;;;;;;13.40;99.90;;;;;;4898089;29;19923;-74
2022/04/15 00:21:41;;;;;;;;;;;13.40;99.90;;;;;;4893736;29;19924;-74
2022/04/15 00:24:12;;;;;;;;;;;13.40;99.90;;;;;;4879628;29;20308;-74
2022/04/15 00:26:44;;;;;;;;;;;13.30;99.90;;;;;;4893539;29;20048;-74
2022/04/15 00:29:17;;;;;;;;;;;13.20;99.90;;;;;;4881002;29;19923;-74
2022/04/15 00:31:48;;;;;;;;;;;13.20;99.90;;;;;;4893196;29;19924;-73
2022/04/15 00:34:20;;;;;;;;;;;13.00;99.90;;;;;;4897236;29;19931;-74
2022/04/15 00:36:51;;;;;;;;;;;13.10;99.90;;;;;;4896516;29;19923;-74
2022/04/15 00:39:23;;;;;;;;;;;13.00;99.90;;;;;;4896636;29;19930;-74
2022/04/15 00:41:56;;;;;;;;;;;13.00;99.90;;;;;;4896826;29;19927;-74
2022/04/15 00:44:28;;;;;;;;;;;12.90;99.90;;;;;;4878856;29;19930;-74
2022/04/15 00:46:59;;;;;;;;;;;12.90;99.90;;;;;;4881634;29;19924;-74
2022/04/15 00:49:31;;;;;;;;;;;12.90;99.90;;;;;;4897367;29;19931;-74
2022/04/15 00:52:02;;;;;;;;;;;12.90;99.90;;;;;;4880122;29;19924;-73
2022/04/15 00:54:36;;;;;;;;;;;12.90;99.90;;;;;;4895485;29;20026;-73
2022/04/15 00:57:09;;;;;;;;;;;12.80;99.90;;;;;;4878702;29;19931;-74
2022/04/15 00:59:41;;;;;;;;;;;12.80;99.90;;;;;;4883935;29;19930;-74
2022/04/15 01:02:15;;;;;;;;;;;12.70;99.90;;;;;;4881951;29;19928;-74
2022/04/15 01:04:48;;;;;;;;;;;12.60;99.90;;;;;;4880485;29;20293;-74
2022/04/15 01:07:22;;;;;;;;;;;12.60;99.90;;;;;;4895537;29;19927;-73
2022/04/15 01:09:54;;;;;;;;;;;12.60;99.90;;;;;;4896862;29;19924;-74
2022/04/15 01:12:28;;;;;;;;;;;12.60;99.90;;;;;;4889137;29;19931;-73
2022/04/15 01:15:00;;;;;;;;;;;12.40;99.90;;;;;;4891876;29;19931;-74
2022/04/15 01:17:35;;;;;;;;;;;12.50;99.90;;;;;;4895298;29;19923;-74
2022/04/15 01:20:08;;;;;;;;;;;12.50;99.90;;;;;;4895657;29;20281;-74
2022/04/15 01:22:47;;;;;;;;;;;12.50;99.90;;;;;;4891388;29;19927;-74
2022/04/15 01:25:18;;;;;;;;;;;12.50;99.90;;;;;;4892351;29;19923;-74
2022/04/15 01:27:50;;;;;;;;;;;12.50;99.90;;;;;;4896602;29;19930;-73
2022/04/15 01:30:21;;;;;;;;;;;12.50;99.90;;;;;;4896643;29;20296;-74
2022/04/15 01:32:53;;;;;;;;;;;12.50;99.90;;;;;;4892149;29;19924;-73
2022/04/15 01:35:25;;;;;;;;;;;12.50;99.90;;;;;;4885253;29;19924;-73
2022/04/15 01:37:59;;;;;;;;;;;12.50;99.90;;;;;;4885482;29;19946;-73
2022/04/15 01:40:31;;;;;;;;;;;12.60;99.90;;;;;;4894849;29;20304;-73
2022/04/15 01:43:03;;;;;;;;;;;12.50;99.90;;;;;;4890334;29;19923;-73
2022/04/15 01:45:34;;;;;;;;;;;12.40;99.90;;;;;;4881363;29;19935;-73
2022/04/15 01:48:06;;;;;;;;;;;12.40;99.90;;;;;;4884231;29;20518;-73
2022/04/15 01:50:38;;;;;;;;;;;12.30;99.90;;;;;;4885237;29;19927;-73
2022/04/15 01:53:09;;;;;;;;;;;12.30;99.90;;;;;;4891240;29;19927;-73
2022/04/15 01:55:41;;;;;;;;;;;12.30;99.90;;;;;;4891191;29;19923;-73
2022/04/15 01:58:12;;;;;;;;;;;12.30;99.90;;;;;;4892263;29;19928;-73
2022/04/15 02:00:44;;;;;;;;;;;12.30;99.90;;;;;;4897988;29;20297;-73
2022/04/15 02:03:16;;;;;;;;;;;12.30;99.90;;;;;;4893420;29;20308;-73
2022/04/15 02:05:47;;;;;;;;;;;12.40;99.90;;;;;;4891717;29;19933;-73
2022/04/15 02:08:19;;;;;;;;;;;12.30;99.90;;;;;;4898477;29;19923;-73
2022/04/15 02:10:50;;;;;;;;;;;12.30;99.90;;;;;;4891911;29;20300;-73
2022/04/15 02:13:22;;;;;;;;;;;12.30;99.90;;;;;;4890873;29;19923;-73
2022/04/15 02:15:53;;;;;;;;;;;12.30;99.90;;;;;;4883669;29;19931;-72
2022/04/15 02:18:26;;;;;;;;;;;12.30;99.90;;;;;;4881150;29;20396;-73
2022/04/15 02:20:57;;;;;;;;;;;12.30;99.90;;;;;;4881017;29;20396;-72
2022/04/15 02:23:29;;;;;;;;;;;12.30;99.90;;;;;;4884314;29;20301;-73
2022/04/15 02:26:00;;;;;;;;;;;12.40;99.90;;;;;;4892292;29;20022;-73
2022/04/15 02:28:32;;;;;;;;;;;12.40;99.90;;;;;;4897300;29;19997;-73
2022/04/15 02:31:04;;;;;;;;;;;12.30;99.90;;;;;;4888357;29;19923;-73
2022/04/15 02:33:35;;;;;;;;;;;12.30;99.90;;;;;;4890388;29;19927;-73
2022/04/15 02:36:07;;;;;;;;;;;12.30;99.90;;;;;;4891628;29;20293;-73
2022/04/15 02:38:38;;;;;;;;;;;12.30;99.90;;;;;;4892900;29;19970;-73
2022/04/15 02:41:10;;;;;;;;;;;12.40;99.90;;;;;;4894305;29;20009;-73
2022/04/15 02:43:42;;;;;;;;;;;12.40;99.90;;;;;;4895887;29;19923;-73
2022/04/15 02:46:14;;;;;;;;;;;12.30;99.90;;;;;;4892914;29;19979;-72
2022/04/15 02:48:45;;;;;;;;;;;12.30;99.90;;;;;;4895063;29;20559;-73
2022/04/15 02:51:17;;;;;;;;;;;12.30;99.90;;;;;;4883160;29;19924;-73
2022/04/15 02:53:49;;;;;;;;;;;12.30;99.90;;;;;;4895657;29;19923;-73
2022/04/15 02:56:21;;;;;;;;;;;12.30;99.90;;;;;;4883980;29;19923;-72
2022/04/15 02:58:52;;;;;;;;;;;12.30;99.90;;;;;;4888979;29;19935;-73
2022/04/15 03:01:24;;;;;;;;;;;12.20;99.90;;;;;;4893632;29;20389;-73
2022/04/15 03:03:55;;;;;;;;;;;12.20;99.90;;;;;;4893915;29;19945;-72
2022/04/15 03:06:27;;;;;;;;;;;12.20;99.90;;;;;;4893747;29;19931;-73
2022/04/15 03:08:59;;;;;;;;;;;12.20;99.90;;;;;;4897453;29;19934;-73
2022/04/15 03:11:32;;;;;;;;;;;12.20;99.90;;;;;;4895510;29;19923;-72
2022/04/15 03:14:04;;;;;;;;;;;12.20;99.90;;;;;;4895089;29;19930;-72
2022/04/15 03:16:36;;;;;;;;;;;12.20;99.90;;;;;;4887392;29;20408;-72
2022/04/15 03:19:07;;;;;;;;;;;12.30;99.90;;;;;;4897875;29;19932;-73
2022/04/15 03:21:39;;;;;;;;;;;12.50;99.90;;;;;;4898848;29;19934;-72
2022/04/15 03:24:11;;;;;;;;;;;12.60;99.90;;;;;;4895025;29;19923;-72
2022/04/15 03:26:43;;;;;;;;;;;12.60;99.90;;;;;;4888562;29;19924;-72
2022/04/15 03:29:15;;;;;;;;;;;12.50;99.90;;;;;;4891669;29;19946;-72
2022/04/15 03:31:47;;;;;;;;;;;12.40;99.90;;;;;;4886577;29;19930;-73
2022/04/15 03:34:18;;;;;;;;;;;12.30;99.90;;;;;;4894585;29;20312;-72
2022/04/15 03:36:50;;;;;;;;;;;12.30;99.90;;;;;;4886064;29;19923;-72
2022/04/15 03:39:21;;;;;;;;;;;12.20;99.90;;;;;;4897474;29;19924;-71
2022/04/15 03:41:53;;;;;;;;;;;12.10;99.90;;;;;;4890604;29;20001;-72
2022/04/15 03:44:25;;;;;;;;;;;12.00;99.90;;;;;;4887783;29;19924;-72
2022/04/15 03:46:56;;;;;;;;;;;12.00;99.90;;;;;;4890434;29;19927;-72
2022/04/15 03:49:28;;;;;;;;;;;11.90;99.90;;;;;;4896451;29;20398;-72
2022/04/15 03:52:00;;;;;;;;;;;11.80;99.90;;;;;;4892014;29;19924;-72
2022/04/15 03:54:31;;;;;;;;;;;11.80;99.90;;;;;;4891245;29;19924;-72
2022/04/15 03:57:03;;;;;;;;;;;11.80;99.90;;;;;;4879699;29;20312;-72
2022/04/15 03:59:35;;;;;;;;;;;11.90;99.90;;;;;;4884881;29;19935;-72
2022/04/15 04:02:06;;;;;;;;;;;12.00;99.90;;;;;;4886452;29;19924;-73
2022/04/15 04:04:38;;;;;;;;;;;12.10;99.90;;;;;;4896514;29;19935;-72
2022/04/15 04:07:10;;;;;;;;;;;12.10;99.90;;;;;;4883206;29;20467;-72
2022/04/15 04:09:42;;;;;;;;;;;12.00;99.90;;;;;;4896023;29;19931;-72
2022/04/15 04:12:13;;;;;;;;;;;12.10;99.90;;;;;;4887463;29;19956;-72
2022/04/15 04:14:45;;;;;;;;;;;12.20;99.90;;;;;;4889735;29;19931;-72
2022/04/15 04:17:16;;;;;;;;;;;12.10;99.90;;;;;;4894277;29;19923;-72
2022/04/15 04:19:48;;;;;;;;;;;12.10;99.90;;;;;;4893031;29;20026;-72
2022/04/15 04:22:20;;;;;;;;;;;12.10;99.90;;;;;;4885455;29;19924;-73
2022/04/15 04:24:51;;;;;;;;;;;12.10;99.90;;;;;;4892718;29;20297;-72
2022/04/15 04:27:23;;;;;;;;;;;12.10;99.90;;;;;;4891368;29;20019;-72
2022/04/15 04:29:54;;;;;;;;;;;12.10;99.90;;;;;;4899488;29;19946;-72
2022/04/15 04:32:26;;;;;;;;;;;12.20;99.90;;;;;;4896507;29;20392;-72
2022/04/15 04:34:58;;;;;;;;;;;12.30;99.90;;;;;;4881377;29;20364;-72
2022/04/15 04:37:30;;;;;;;;;;;12.40;99.90;;;;;;4896405;29;20026;-72
2022/04/15 04:40:02;;;;;;;;;;;12.30;99.90;;;;;;4892225;29;19923;-72
2022/04/15 04:42:33;;;;;;;;;;;12.10;99.90;;;;;;4888310;29;19928;-72
2022/04/15 04:45:05;;;;;;;;;;;11.90;99.90;;;;;;4891188;29;20022;-73
2022/04/15 04:47:38;;;;;;;;;;;11.80;99.90;;;;;;4887266;29;20018;-72
2022/04/15 04:50:10;;;;;;;;;;;11.80;99.90;;;;;;4878533;29;19946;-72
2022/04/15 04:52:42;;;;;;;;;;;11.80;99.90;;;;;;4889674;29;19931;-72
2022/04/15 04:55:14;;;;;;;;;;;11.70;99.90;;;;;;4890382;29;19950;-72
2022/04/15 04:57:45;;;;;;;;;;;11.70;99.90;;;;;;4886283;29;19924;-72
2022/04/15 05:00:17;;;;;;;;;;;11.70;99.90;;;;;;4892972;29;19930;-73
2022/04/15 05:02:49;;;;;;;;;;;11.80;99.90;;;;;;4881613;29;19923;-72
2022/04/15 05:05:21;;;;;;;;;;;11.80;99.90;;;;;;4890938;29;19931;-72
2022/04/15 05:07:53;;;;;;;;;;;11.80;99.90;;;;;;4888396;29;19928;-72
2022/04/15 05:10:24;;;;;;;;;;;11.90;99.90;;;;;;4886904;29;20333;-73
2022/04/15 05:12:56;;;;;;;;;;;11.90;99.90;;;;;;4895037;29;19923;-72
2022/04/15 05:15:27;;;;;;;;;;;11.90;99.90;;;;;;4888855;29;20403;-73
2022/04/15 05:17:59;;;;;;;;;;;11.90;99.90;;;;;;4894696;29;20039;-73
2022/04/15 05:20:32;;;;;;;;;;;11.80;99.90;;;;;;4878673;29;20417;-73
2022/04/15 05:23:04;;;;;;;;;;;11.80;99.90;;;;;;4890018;29;19924;-73
2022/04/15 05:25:35;;;;;;;;;;;11.80;99.90;;;;;;4889994;29;20284;-72
2022/04/15 05:28:07;;;;;;;;;;;11.80;99.90;;;;;;4886767;29;19923;-73
2022/04/15 05:30:39;;;;;;;;;;;11.80;99.90;;;;;;4891532;29;19928;-73
2022/04/15 05:33:10;;;;;;;;;;;11.80;99.90;;;;;;4896128;29;19931;-73
2022/04/15 05:35:42;;;;;;;;;;;11.80;99.90;;;;;;4887009;29;19946;-72
2022/04/15 05:38:13;;;;;;;;;;;11.80;99.90;;;;;;4895758;29;19923;-72
2022/04/15 05:40:45;;;;;;;;;;;11.80;99.90;;;;;;4897048;29;19923;-72
2022/04/15 05:43:17;;;;;;;;;;;11.90;99.90;;;;;;4889603;29;20296;-72
2022/04/15 05:45:48;;;;;;;;;;;11.90;99.90;;;;;;4896915;29;20408;-72
2022/04/15 05:48:20;;;;;;;;;;;11.90;99.90;;;;;;4882012;29;19928;-73
2022/04/15 05:50:51;;;;;;;;;;;11.90;99.90;;;;;;4878154;29;20266;-72
2022/04/15 05:53:23;;;;;;;;;;;12.00;99.90;;;;;;4899189;29;20351;-73
2022/04/15 05:55:49;;;;;;;;;;;12.00;99.90;;;;;;4896837;29;19930;-72
2022/04/15 05:58:21;;;;;;;;;;;12.10;99.90;;;;;;4896114;29;20393;-73
2022/04/15 06:00:53;;;;;;;;;;;12.00;99.90;;;;;;4882065;29;19939;-72
2022/04/15 06:03:25;;;;;;;;;;;12.10;99.90;;;;;;4884340;29;19930;-74
2022/04/15 06:05:57;;;;;;;;;;;12.10;99.90;;;;;;4900516;29;19923;-72
2022/04/15 06:08:28;;;;;;;;;;;12.10;99.90;;;;;;4900427;29;19923;-72
2022/04/15 06:11:00;;;;;;;;;;;12.10;99.90;;;;;;4899277;29;19931;-72
2022/04/15 06:13:31;;;;;;;;;;;12.10;99.90;;;;;;4898946;29;19923;-71
2022/04/15 06:16:07;;;;;;;;;;;12.20;99.90;;;;;;4900383;29;19924;-71
2022/04/15 06:18:39;;;;;;;;;;;12.20;99.90;;;;;;4899199;29;19956;-72
2022/04/15 06:21:06;;;;;;;;;;;12.30;99.90;;;;;;4896402;29;19930;-72
2022/04/15 06:23:38;;;;;;;;;;;12.30;99.90;;;;;;4898849;29;20398;-72
2022/04/15 06:26:10;;;;;;;;;;;12.30;99.90;;;;;;4899029;29;20308;-72
2022/04/15 06:28:42;;;;;;;;;;;12.40;99.90;;;;;;4897289;29;19930;-72
2022/04/15 06:31:13;;;;;;;;;;;12.50;99.90;;;;;;4898820;29;20404;-72
2022/04/15 06:33:45;;;;;;;;;;;12.60;99.90;;;;;;4892060;29;20296;-72
2022/04/15 06:36:16;;;;;;;;;;;12.60;99.90;;;;;;4896473;29;19923;-72
2022/04/15 06:38:48;;;;;;;;;;;12.60;99.90;;;;;;4896795;29;19935;-73
2022/04/15 06:41:20;;;;;;;;;;;12.60;99.90;;;;;;4892618;29;19928;-73
2022/04/15 06:43:51;;;;;;;;;;;12.50;99.90;;;;;;4890284;29;19923;-73
2022/04/15 06:46:23;;;;;;;;;;;12.50;99.90;;;;;;4897120;29;20041;-73
2022/04/15 06:48:54;;;;;;;;;;;12.50;99.90;;;;;;4899782;29;19923;-72
2022/04/15 06:51:26;;;;;;;;;;;12.50;99.90;;;;;;4899708;29;19923;-72
2022/04/15 06:53:58;;;;;;;;;;;12.50;99.90;;;;;;4899446;29;19927;-73
2022/04/15 06:56:29;;;;;;;;;;;12.50;99.90;;;;;;4898347;29;19931;-72
2022/04/15 06:59:01;;;;;;;;;;;12.50;99.90;;;;;;4897773;29;20315;-72
2022/04/15 07:01:29;;;;;;;;;;;12.60;99.90;;;;;;4899693;29;19975;-72
2022/04/15 07:04:02;;;;;;;;;;;12.60;99.90;;;;;;4898005;29;20407;-71
2022/04/15 07:06:34;;;;;;;;;;;12.70;99.90;;;;;;4898145;29;20340;-72
2022/04/15 07:09:05;;;;;;;;;;;12.70;99.90;;;;;;4898560;29;19924;-72
2022/04/15 07:11:37;;;;;;;;;;;12.80;99.90;;;;;;4898145;29;19931;-72
2022/04/15 07:14:08;;;;;;;;;;;12.90;99.90;;;;;;4899218;29;19924;-72
2022/04/15 07:16:40;;;;;;;;;;;12.90;99.90;;;;;;4899128;29;19924;-72
2022/04/15 07:19:12;;;;;;;;;;;13.00;99.90;;;;;;4899256;29;19923;-72
2022/04/15 07:21:43;;;;;;;;;;;13.00;99.90;;;;;;4898021;29;19931;-72
2022/04/15 07:24:15;;;;;;;;;;;13.10;99.90;;;;;;4895441;29;20265;-72
2022/04/15 07:26:46;;;;;;;;;;;13.10;99.90;;;;;;4899110;29;20404;-72
2022/04/15 07:29:20;;;;;;;;;;;13.10;99.90;;;;;;4899231;29;19929;-72
2022/04/15 07:31:52;;;;;;;;;;;13.10;99.90;;;;;;4897545;29;20291;-72
2022/04/15 07:34:26;;;;;;;;;;;13.20;99.90;;;;;;4898998;29;20339;-72
2022/04/15 07:36:59;;;;;;;;;;;13.30;99.90;;;;;;4894001;29;19934;-72
2022/04/15 07:39:31;;;;;;;;;;;13.30;99.90;;;;;;4897539;29;19930;-73
2022/04/15 07:42:03;;;;;;;;;;;13.30;99.90;;;;;;4894172;29;19928;-73
2022/04/15 07:44:35;;;;;;;;;;;13.30;99.90;;;;;;4883927;29;19946;-73
2022/04/15 07:47:07;;;;;;;;;;;13.40;99.90;;;;;;4878729;29;19931;-73
2022/04/15 07:49:39;;;;;;;;;;;13.40;99.90;;;;;;4879981;29;19927;-73
2022/04/15 07:52:11;;;;;;;;;;;13.50;99.90;;;;;;4883311;29;19930;-73
2022/04/15 07:54:42;;;;;;;;;;;13.60;99.90;;;;;;4893677;29;20408;-73
2022/04/15 07:57:14;;;;;;;;;;;13.60;99.90;;;;;;4892880;29;20316;-73
2022/04/15 07:59:45;;;;;;;;;;;13.60;99.90;;;;;;4890870;29;19923;-73
2022/04/15 08:02:17;;;;;;;;;;;13.70;99.90;;;;;;4897062;29;19923;-73
2022/04/15 08:04:50;;;;;;;;;;;13.80;99.90;;;;;;4892012;29;19932;-73
2022/04/15 08:07:22;;;;;;;;;;;13.80;99.90;;;;;;4881208;29;20040;-73
2022/04/15 08:09:54;;;;;;;;;;;13.90;99.90;;;;;;4897068;29;20388;-73
2022/04/15 08:12:25;;;;;;;;;;;13.90;99.90;;;;;;4876954;29;19943;-71
2022/04/15 08:14:57;;;;;;;;;;;14.00;99.90;;;;;;4894583;29;19923;-73
2022/04/15 08:17:29;;;;;;;;;;;14.10;99.90;;;;;;4895044;29;19945;-73
2022/04/15 08:20:00;;;;;;;;;;;14.20;99.90;;;;;;4892905;29;20407;-73
2022/04/15 08:22:35;;;;;;;;;;;14.20;99.90;;;;;;4878463;29;19927;-73
2022/04/15 08:25:07;;;;;;;;;;;14.30;99.90;;;;;;4895822;29;19927;-73
2022/04/15 08:27:39;;;;;;;;;;;14.30;99.90;;;;;;4894117;29;19934;-73
2022/04/15 08:30:10;;;;;;;;;;;14.40;99.90;;;;;;4897814;29;19946;-73
2022/04/15 08:32:42;;;;;;;;;;;14.40;99.90;;;;;;4892961;29;19999;-73
2022/04/15 08:35:14;;;;;;;;;;;14.40;99.90;;;;;;4892696;29;19924;-73
2022/04/15 08:37:46;;;;;;;;;;;14.50;99.90;;;;;;4897199;29;19979;-73
2022/04/15 08:40:17;;;;;;;;;;;14.60;99.90;;;;;;4886496;29;19930;-73
2022/04/15 08:42:49;;;;;;;;;;;14.70;99.90;;;;;;4877960;29;20380;-73
2022/04/15 08:45:21;;;;;;;;;;;14.80;99.90;;;;;;4887990;29;19923;-73
2022/04/15 08:47:57;;;;;;;;;;;14.80;99.90;;;;;;4895333;29;19923;-73
2022/04/15 08:50:29;;;;;;;;;;;14.90;99.90;;;;;;4894919;29;19924;-73
2022/04/15 08:53:01;;;;;;;;;;;14.80;99.90;;;;;;4885814;29;20308;-73
2022/04/15 08:55:33;;;;;;;;;;;14.90;99.90;;;;;;4891682;29;19923;-73
2022/04/15 08:58:04;;;;;;;;;;;15.00;99.90;;;;;;4892594;29;19935;-73
2022/04/15 09:00:36;;;;;;;;;;;15.00;99.90;;;;;;4895114;29;19927;-73
2022/04/15 09:03:08;;;;;;;;;;;15.10;99.90;;;;;;4891558;29;19928;-73
2022/04/15 09:05:40;;;;;;;;;;;15.10;99.90;;;;;;4894834;29;19927;-73
2022/04/15 09:08:11;;;;;;;;;;;15.20;99.90;;;;;;4894802;29;20014;-72
2022/04/15 09:10:53;;;;;;;;;;;15.20;99.90;;;;;;4890183;29;19924;-73
2022/04/15 09:13:28;;;;;;;;;;;15.20;99.90;;;;;;4891568;29;19931;-73
2022/04/15 09:16:01;;;;;;;;;;;15.30;99.90;;;;;;4896108;29;19927;-73
2022/04/15 09:18:34;;;;;;;;;;;15.30;99.90;;;;;;4880389;29;20394;-73
2022/04/15 09:21:16;;;;;;;;;;;15.30;99.90;;;;;;4893348;29;19979;-73
2022/04/15 09:23:51;;;;;;;;;;;15.20;99.90;;;;;;4887832;29;19929;-73
2022/04/15 09:26:24;;;;;;;;;;;15.30;99.90;;;;;;4901076;29;19931;-73
2022/04/15 09:28:53;;;;;;;;;;;15.40;99.90;;;;;;4895885;29;20304;-73
2022/04/15 09:31:25;;;;;;;;;;;15.60;99.90;;;;;;4894351;29;20011;-73
2022/04/15 09:33:57;;;;;;;;;;;15.70;99.90;;;;;;4894028;29;19980;-73
2022/04/15 09:36:33;;;;;;;;;;;15.80;99.90;;;;;;4893665;29;20400;-73
2022/04/15 09:39:14;;;;;;;;;;;15.90;99.90;;;;;;4893942;29;19930;-73
2022/04/15 09:41:56;;;;;;;;;;;16.10;99.90;;;;;;4894389;29;19924;-73
2022/04/15 09:44:32;;;;;;;;;;;16.20;99.90;;;;;;4879910;29;19924;-73
2022/04/15 09:47:04;;;;;;;;;;;16.30;99.90;;;;;;4894240;29;19923;-73
2022/04/15 09:49:35;;;;;;;;;;;16.30;99.90;;;;;;4893420;29;19923;-73
2022/04/15 09:52:07;;;;;;;;;;;16.30;99.90;;;;;;4895670;29;19930;-73
2022/04/15 09:54:39;;;;;;;;;;;16.40;99.90;;;;;;4893435;29;19923;-73
2022/04/15 09:57:06;;;;;;;;;;;16.40;99.90;;;;;;4894470;29;20248;-73
2022/04/15 09:59:44;;;;;;;;;;;16.50;99.90;;;;;;4891024;29;19930;-73
2022/04/15 10:02:16;;;;;;;;;;;16.50;99.90;;;;;;4882774;29;19924;-72
2022/04/15 10:04:47;;;;;;;;;;;16.70;99.90;;;;;;4886071;29;20108;-73
2022/04/15 10:07:19;;;;;;;;;;;16.90;99.90;;;;;;4893553;29;19928;-73
2022/04/15 10:09:51;;;;;;;;;;;16.90;99.90;;;;;;4889463;29;19930;-73
2022/04/15 10:12:23;;;;;;;;;;;16.90;99.90;;;;;;4892466;29;19930;-73
2022/04/15 10:14:56;;;;;;;;;;;16.90;99.90;;;;;;4896801;29;19930;-73
2022/04/15 10:17:28;;;;;;;;;;;16.90;99.90;;;;;;4896296;29;20384;-73
2022/04/15 10:20:01;;;;;;;;;;;17.00;99.90;;;;;;4895325;29;19942;-73
2022/04/15 10:22:34;;;;;;;;;;;17.10;99.90;;;;;;4880056;29;19924;-73
2022/04/15 10:25:06;;;;;;;;;;;17.20;99.90;;;;;;4887017;29;19928;-73
2022/04/15 10:27:38;;;;;;;;;;;17.20;99.90;;;;;;4874744;29;19924;-74
2022/04/15 10:30:20;;;;;;;;;;;17.30;99.90;;;;;;4896128;29;19923;-73
2022/04/15 10:32:53;;;;;;;;;;;17.30;99.90;;;;;;4883804;29;19923;-73
2022/04/15 10:35:29;;;;;;;;;;;17.10;99.90;;;;;;4897577;29;20014;-73
2022/04/15 10:38:10;;;;;;;;;;;17.10;99.90;;;;;;4890506;29;19927;-73
2022/04/15 10:40:42;;;;;;;;;;;17.10;99.90;;;;;;4889382;29;20026;-72
2022/04/15 10:43:22;;;;;;;;;;;17.20;99.90;;;;;;4888428;29;19930;-73
2022/04/15 10:46:15;;;;;;;;;;;17.20;99.90;;;;;;4893995;29;19924;-73
2022/04/15 10:48:47;;;;;;;;;;;17.30;99.90;;;;;;4894796;29;19928;-73
2022/04/15 10:51:24;;;;;;;;;;;17.40;99.90;;;;;;4892693;29;19927;-73
2022/04/15 10:53:54;;;;;;;;;;;17.50;99.90;;;;;;4894573;29;19923;-73
2022/04/15 10:56:26;;;;;;;;;;;17.60;99.90;;;;;;4882970;29;19931;-73
2022/04/15 11:01:53;;;;;;;;;;;17.60;99.90;;;;;;4910665;29;19936;-72
2022/04/15 11:04:23;;;;;;;;;;;17.70;99.90;;;;;;4892304;29;19931;-73
2022/04/15 11:06:55;;;;;;;;;;;17.60;99.90;;;;;;4897392;29;19931;-73
2022/04/15 11:09:28;;;;;;;;;;;17.50;99.90;;;;;;4893923;29;19923;-73
2022/04/15 11:12:02;;;;;;;;;;;17.50;99.90;;;;;;4894023;29;20389;-73
2022/04/15 11:14:38;;;;;;;;;;;17.60;99.90;;;;;;4879811;29;20286;-73
2022/04/15 11:17:12;;;;;;;;;;;17.80;99.90;;;;;;4883152;29;20479;-73
2022/04/15 11:19:45;;;;;;;;;;;17.90;99.90;;;;;;4880025;29;20423;-72
2022/04/15 11:22:17;;;;;;;;;;;18.20;99.90;;;;;;4894710;29;19936;-72
2022/04/15 11:24:43;;;;;;;;;;;18.30;99.90;;;;;;4895766;29;19934;-73
2022/04/15 11:27:13;;;;;;;;;;;18.30;99.90;;;;;;4898536;29;20410;-73
2022/04/15 11:29:47;;;;;;;;;;;18.30;99.90;;;;;;4897267;29;19930;-72
2022/04/15 11:32:19;;;;;;;;;;;18.30;99.90;;;;;;4891908;29;19929;-73
2022/04/15 11:34:54;;;;;;;;;;;18.30;99.90;;;;;;4892275;29;19924;-72
2022/04/15 11:37:26;;;;;;;;;;;18.20;99.90;;;;;;4893201;29;19928;-73
2022/04/15 11:39:58;;;;;;;;;;;18.30;99.90;;;;;;4893782;29;20018;-73
2022/04/15 11:42:31;;;;;;;;;;;18.30;99.90;;;;;;4892352;29;20292;-73
2022/04/15 11:45:04;;;;;;;;;;;18.30;99.90;;;;;;4882679;29;20388;-73
2022/04/15 11:47:35;;;;;;;;;;;18.50;99.90;;;;;;4885777;29;19926;-72
2022/04/15 11:50:07;;;;;;;;;;;18.30;99.90;;;;;;4884967;29;19927;-71
2022/04/15 11:52:34;;;;;;;;;;;18.20;99.90;;;;;;4856498;29;19924;-73
2022/04/15 11:55:14;;;;;;;;;;;18.10;99.90;;;;;;4871571;29;19923;-72
2022/04/15 11:57:46;;;;;;;;;;;18.10;99.90;;;;;;4858664;29;19924;-72
2022/04/15 12:00:13;;;;;;;;;;;18.20;99.90;;;;;;4839352;29;19928;-73
2022/04/15 12:02:44;;;;;;;;;;;18.50;99.90;;;;;;4862985;29;19930;-73
2022/04/15 12:05:16;;;;;;;;;;;18.60;99.90;;;;;;4854527;29;19927;-73
2022/04/15 12:07:50;;;;;;;;;;;18.60;99.90;;;;;;4874092;29;19932;-73
2022/04/15 12:10:22;;;;;;;;;;;18.50;99.90;;;;;;4852463;29;19930;-73
2022/04/15 12:12:53;;;;;;;;;;;18.50;99.90;;;;;;4864257;29;19928;-73
2022/04/15 12:15:25;;;;;;;;;;;18.30;99.90;;;;;;4836714;29;20382;-72
2022/04/15 12:17:52;;;;;;;;;;;18.20;99.90;;;;;;4875635;29;19923;-73
2022/04/15 12:20:24;;;;;;;;;;;18.00;99.90;;;;;;4870124;29;19934;-76
2022/04/15 12:22:56;;;;;;;;;;;18.00;99.90;;;;;;4862998;29;19930;-73
2022/04/15 12:25:23;;;;;;;;;;;18.10;99.90;;;;;;4875273;29;19928;-73
2022/04/15 12:29:47;;;;;;;;;;;18.10;99.90;;;;;;4875309;29;19924;-73
2022/04/15 12:31:00;;;;;;;;;;;18.10;99.90;;;;;;4853281;29;19938;-71
2022/04/15 12:33:27;;;;;;;;;;;18.10;99.90;;;;;;4883074;29;19929;-73
2022/04/15 12:36:03;;;;;;;;;;;18.10;99.90;;;;;;4904021;29;20009;-73
2022/04/15 12:39:07;;;;;;;;;;;18.40;99.90;;;;;;4873462;29;19924;-73
2022/04/15 12:41:42;;;;;;;;;;;18.60;99.90;;;;;;4901303;29;19930;-74
2022/04/15 12:44:20;;;;;;;;;;;18.90;99.90;;;;;;4887019;29;19935;-73
2022/04/15 12:47:00;;;;;;;;;;;18.90;99.90;;;;;;4886476;29;19924;-74
2022/04/15 12:49:36;;;;;;;;;;;18.80;99.30;;;;;;4908562;29;20380;-74
2022/04/15 12:52:21;;;;;;;;;;;18.90;99.90;;;;;;4894878;29;19927;-72
2022/04/15 12:54:56;;;;;;;;;;;18.90;99.90;;;;;;4876813;29;19923;-73
2022/04/15 12:57:26;;;;;;;;;;;18.80;97.70;;;;;;4905891;29;19926;-73
2022/04/15 12:59:58;;;;;;;;;;;18.80;98.80;;;;;;4890020;29;20025;-73
2022/04/15 13:02:30;;;;;;;;;;;18.90;97.90;;;;;;4895756;29;19930;-73
2022/04/15 13:05:05;;;;;;;;;;;18.90;98.60;;;;;;4892128;29;19932;-74
2022/04/15 13:07:36;;;;;;;;;;;18.90;97.60;;;;;;4890812;29;20490;-74
2022/04/15 13:10:09;;;;;;;;;;;18.90;97.00;;;;;;4894067;29;19934;-73
2022/04/15 13:12:41;;;;;;;;;;;18.80;96.30;;;;;;4891995;29;20321;-72
2022/04/15 13:15:14;;;;;;;;;;;18.70;97.10;;;;;;4902985;29;19927;-73
2022/04/15 13:17:45;;;;;;;;;;;18.60;96.20;;;;;;4892174;29;20038;-72
2022/04/15 13:20:17;;;;;;;;;;;18.60;94.70;;;;;;4889816;29;19945;-73
2022/04/15 13:22:48;;;;;;;;;;;18.60;96.50;;;;;;4892671;29;20054;-73
2022/04/15 13:25:20;;;;;;;;;;;18.70;94.30;;;;;;4882045;29;19971;-73
2022/04/15 13:27:52;;;;;;;;;;;18.90;94.90;;;;;;4921282;29;19927;-73
2022/04/15 13:30:23;;;;;;;;;;;19.00;94.20;;;;;;4894634;29;19923;-73
2022/04/15 13:32:55;;;;;;;;;;;19.20;93.40;;;;;;4894644;29;20026;-73
2022/04/15 13:35:22;;;;;;;;;;;19.30;92.60;;;;;;4884794;29;20404;-73
2022/04/15 13:37:53;;;;;;;;;;;19.50;93.00;;;;;;4929114;23;19907;-75
2022/04/15 13:40:25;;;;;;;;;;;19.50;87.30;;;;;;4910173;29;20388;-74
2022/04/15 13:42:57;;;;;;;;;;;19.60;85.70;;;;;;4909814;29;19934;-75
2022/04/15 13:45:28;;;;;;;;;;;19.60;86.80;;;;;;4894964;29;19923;-74
2022/04/15 13:48:00;;;;;;;;;;;19.60;86.00;;;;;;4889776;29;19927;-74
2022/04/15 13:50:32;;;;;;;;;;;19.60;90.00;;;;;;4896408;29;20393;-76
2022/04/15 13:58:39;;;;;;;;;;;19.30;91.20;;;;;;4911878;29;19946;-75
2022/04/15 14:01:23;;;;;;;;;;;19.20;90.20;;;;;;4898597;29;20403;-74
2022/04/15 14:03:54;;;;;;;;;;;19.10;92.10;;;;;;4898788;29;20300;-76
2022/04/15 14:06:26;;;;;;;;;;;18.90;92.20;;;;;;4856982;29;20097;-74
2022/04/15 14:08:53;;;;;;;;;;;18.90;91.70;;;;;;4896754;29;19963;-73
2022/04/15 14:11:25;;;;;;;;;;;18.90;91.70;;;;;;4898081;29;19939;-75
2022/04/15 14:14:04;;;;;;;;;;;19.00;91.30;;;;;;4872857;29;19962;-74
2022/04/15 14:16:36;;;;;;;;;;;19.10;90.40;;;;;;4870406;29;20437;-75
2022/04/15 14:19:05;;;;;;;;;;;19.10;90.70;;;;;;4893391;29;19924;-75
2022/04/15 14:21:37;;;;;;;;;;;19.10;91.60;;;;;;4893382;29;19927;-74
2022/04/15 14:24:09;;;;;;;;;;;19.00;91.30;;;;;;4897488;29;19924;-74
2022/04/15 14:26:40;;;;;;;;;;;18.90;92.00;;;;;;4910484;29;19923;-75
2022/04/15 14:29:07;;;;;;;;;;;18.90;91.70;;;;;;4896882;29;19923;-74
2022/04/15 14:31:34;;;;;;;;;;;19.20;91.90;;;;;;4897882;29;20428;-74
2022/04/15 14:34:01;;;;;;;;;;;19.40;92.00;;;;;;4894496;29;19927;-74
2022/04/15 14:36:27;;;;;;;;;;;19.40;92.20;;;;;;4913738;29;19934;-75
2022/04/15 14:38:59;;;;;;;;;;;19.30;92.40;;;;;;4902811;29;19923;-75
2022/04/15 14:41:30;;;;;;;;;;;19.30;92.20;;;;;;4911681;29;19931;-75
2022/04/15 14:44:02;;;;;;;;;;;19.40;92.10;;;;;;4911088;29;19923;-75
2022/04/15 14:46:34;;;;;;;;;;;19.40;91.20;;;;;;4897849;29;20018;-75
2022/04/15 14:49:00;;;;;;;;;;;19.50;90.50;;;;;;4895635;29;20316;-73
2022/04/15 14:51:27;;;;;;;;;;;19.60;90.80;;;;;;4897786;29;20380;-75
2022/04/15 14:53:54;;;;;;;;;;;19.70;89.50;;;;;;4898402;29;20337;-74